createdAt,value
2023-07-26T00:00:42.624Z,0.70
2023-07-26T00:04:06.167Z,0.98
2023-07-26T00:07:28.520Z,0.85
2023-07-26T00:10:50.746Z,0.80
2023-07-26T00:14:14.841Z,0.73
2023-07-26T00:17:37.077Z,0.80
2023-07-26T00:20:59.271Z,1.00
2023-07-26T00:24:21.693Z,0.90
2023-07-26T00:27:43.906Z,0.90
2023-07-26T00:31:06.828Z,0.85
2023-07-26T00:34:29.059Z,0.90
2023-07-26T00:37:51.595Z,0.77
2023-07-26T00:41:14.281Z,0.80
2023-07-26T00:44:36.610Z,0.75
2023-07-26T00:47:59.107Z,0.90
2023-07-26T00:51:23.151Z,1.00
2023-07-26T00:54:45.374Z,0.90
2023-07-26T00:58:08.349Z,1.00
2023-07-26T01:01:30.875Z,0.90
2023-07-26T01:04:53.846Z,0.77
2023-07-26T01:08:43.805Z,1.08
2023-07-26T01:12:10.820Z,1.40
2023-07-26T01:15:37.846Z,1.20
2023-07-26T01:19:00.153Z,1.00
2023-07-26T01:22:22.406Z,1.17
2023-07-26T01:25:44.657Z,1.00
2023-07-26T01:29:06.939Z,1.02
2023-07-26T01:32:32.742Z,1.30
2023-07-26T01:35:55.875Z,1.42
2023-07-26T01:39:19.270Z,1.20
2023-07-26T01:42:42.561Z,1.40
2023-07-26T01:46:04.796Z,1.05
2023-07-26T01:49:27.554Z,1.10
2023-07-26T01:52:49.890Z,1.10
2023-07-26T01:56:12.142Z,0.88
2023-07-26T01:59:34.359Z,1.58
2023-07-26T02:02:56.644Z,1.08
2023-07-26T02:06:18.936Z,1.10
2023-07-26T02:09:41.568Z,1.10
2023-07-26T02:13:03.935Z,1.35
2023-07-26T02:16:26.184Z,1.40
2023-07-26T02:19:48.478Z,1.40
2023-07-26T02:23:12.151Z,1.30
2023-07-26T02:26:34.477Z,1.15
2023-07-26T02:29:57.250Z,1.30
2023-07-26T02:33:19.535Z,2.25
2023-07-26T02:36:42.013Z,1.15
2023-07-26T02:40:04.567Z,1.10
2023-07-26T02:43:39.004Z,1.55
2023-07-26T02:47:03.310Z,0.80
2023-07-26T02:50:25.518Z,0.88
2023-07-26T02:53:47.754Z,0.82
2023-07-26T02:57:10.040Z,0.82
2023-07-26T03:00:32.206Z,1.00
2023-07-26T03:03:54.526Z,0.80
2023-07-26T03:07:17.356Z,0.98
2023-07-26T03:10:39.809Z,1.00
2023-07-26T03:14:02.559Z,0.82
2023-07-26T03:17:24.919Z,0.88
2023-07-26T03:20:47.913Z,0.82
2023-07-26T03:24:10.179Z,0.80
2023-07-26T03:27:32.484Z,0.90
2023-07-26T03:30:54.699Z,0.80
2023-07-26T03:34:17.256Z,1.00
2023-07-26T03:37:39.515Z,1.20
2023-07-26T03:41:02.166Z,1.08
2023-07-26T03:44:24.450Z,0.80
2023-07-26T03:47:46.769Z,1.00
2023-07-26T03:51:09.056Z,1.30
2023-07-26T03:54:31.502Z,1.30
2023-07-26T03:57:57.387Z,1.10
2023-07-26T04:01:19.616Z,0.90
2023-07-26T04:04:41.845Z,0.93
2023-07-26T04:08:04.245Z,0.98
2023-07-26T04:11:26.986Z,0.85
2023-07-26T04:14:49.360Z,1.10
2023-07-26T04:18:11.625Z,1.02
2023-07-26T04:21:33.864Z,1.23
2023-07-26T04:24:56.113Z,1.10
2023-07-26T04:28:18.377Z,1.30
2023-07-26T04:31:40.857Z,1.50
2023-07-26T04:35:03.137Z,1.40
2023-07-26T04:38:26.865Z,1.25
2023-07-26T04:41:49.086Z,1.40
2023-07-26T04:45:11.486Z,1.63
2023-07-26T04:48:33.794Z,1.17
2023-07-26T04:51:56.042Z,1.25
2023-07-26T04:55:18.239Z,1.23
2023-07-26T04:58:40.467Z,1.00
2023-07-26T05:02:02.744Z,1.38
2023-07-26T05:05:24.971Z,1.30
2023-07-26T05:08:48.624Z,1.17
2023-07-26T05:12:10.888Z,1.30
2023-07-26T05:15:33.248Z,0.90
2023-07-26T05:18:58.975Z,1.27
2023-07-26T05:22:21.202Z,1.00
2023-07-26T05:25:43.421Z,1.10
2023-07-26T05:29:05.669Z,1.17
2023-07-26T05:32:28.298Z,1.00
2023-07-26T05:35:50.571Z,1.00
2023-07-26T05:39:13.785Z,1.05
2023-07-26T05:42:37.028Z,1.00
2023-07-26T05:46:00.896Z,0.90
2023-07-26T05:49:23.169Z,1.20
2023-07-26T05:52:45.653Z,1.00
2023-07-26T05:56:08.547Z,1.23
2023-07-26T05:59:30.942Z,1.10
2023-07-26T06:02:53.179Z,1.17
2023-07-26T06:06:15.703Z,1.08
2023-07-26T06:09:38.005Z,1.17
2023-07-26T06:13:00.355Z,1.23
2023-07-26T06:16:22.791Z,1.40
2023-07-26T06:19:45.082Z,1.17
2023-07-26T06:23:08.575Z,1.50
2023-07-26T06:26:30.900Z,1.25
2023-07-26T06:29:53.140Z,1.17
2023-07-26T06:33:15.374Z,1.27
2023-07-26T06:36:37.600Z,1.08
2023-07-26T06:39:59.838Z,1.20
2023-07-26T06:43:22.079Z,1.20
2023-07-26T06:46:44.339Z,1.10
2023-07-26T06:50:07.073Z,1.13
2023-07-26T06:53:29.283Z,1.10
2023-07-26T06:56:51.812Z,1.20
2023-07-26T07:00:16.982Z,1.27
2023-07-26T07:03:39.200Z,1.45
2023-07-26T07:07:01.621Z,1.00
2023-07-26T07:10:24.744Z,1.33
2023-07-26T07:13:47.253Z,1.20
2023-07-26T07:17:09.500Z,1.02
2023-07-26T07:20:31.724Z,1.15
2023-07-26T07:23:54.138Z,1.35
2023-07-26T07:27:16.386Z,1.30
2023-07-26T07:30:38.600Z,1.30
2023-07-26T07:34:00.871Z,1.13
2023-07-26T07:37:23.326Z,1.33
2023-07-26T07:40:45.582Z,1.30
2023-07-26T07:44:08.034Z,1.27
2023-07-26T07:47:30.316Z,1.50
2023-07-26T07:50:56.117Z,0.95
2023-07-26T07:54:18.435Z,0.80
2023-07-26T07:57:41.577Z,1.10
2023-07-26T08:01:03.919Z,1.15
2023-07-26T08:04:26.144Z,1.45
2023-07-26T08:07:51.450Z,1.00
2023-07-26T08:11:13.784Z,1.30
2023-07-26T08:14:36.308Z,1.17
2023-07-26T08:17:58.595Z,1.05
2023-07-26T08:21:20.803Z,1.00
2023-07-26T08:24:43.187Z,1.20
2023-07-26T08:28:06.061Z,1.10
2023-07-26T08:31:28.378Z,1.10
2023-07-26T08:34:50.635Z,1.30
2023-07-26T08:38:12.909Z,1.10
2023-07-26T08:41:36.235Z,1.08
2023-07-26T08:45:00.501Z,1.10
2023-07-26T08:48:23.277Z,0.83
2023-07-26T08:51:45.839Z,0.73
2023-07-26T08:55:10.200Z,0.98
2023-07-26T08:58:32.411Z,0.80
2023-07-26T09:02:03.760Z,1.27
2023-07-26T09:05:26.740Z,1.02
2023-07-26T09:08:49.347Z,1.00
2023-07-26T09:12:26.001Z,1.10
2023-07-26T09:15:48.257Z,1.10
2023-07-26T09:19:10.591Z,1.05
2023-07-26T09:22:32.852Z,1.33
2023-07-26T09:25:55.284Z,0.85
2023-07-26T09:29:18.058Z,0.90
2023-07-26T09:32:40.821Z,0.88
2023-07-26T09:36:03.128Z,1.15
2023-07-26T09:39:27.240Z,0.73
2023-07-26T09:42:50.457Z,0.90
2023-07-26T09:49:53.724Z,0.98
2023-07-26T09:53:35.259Z,0.90
2023-07-26T09:56:58.452Z,0.68
2023-07-26T10:00:22.887Z,1.02
2023-07-26T10:03:51.038Z,1.00
2023-07-26T10:07:14.684Z,0.90
2023-07-26T10:10:37.065Z,1.15
2023-07-26T10:14:00.987Z,0.80
2023-07-26T10:17:27.782Z,0.70
2023-07-26T10:20:51.690Z,1.00
2023-07-26T10:24:15.949Z,0.88
2023-07-26T10:27:39.649Z,0.87
2023-07-26T10:31:02.629Z,0.75
2023-07-26T10:34:26.197Z,1.13
2023-07-26T10:37:48.403Z,0.80
2023-07-26T10:41:29.129Z,1.13
2023-07-26T10:44:55.784Z,0.70
2023-07-26T10:48:27.492Z,0.77
2023-07-26T10:51:53.506Z,0.50
2023-07-26T10:55:24.987Z,1.02
2023-07-26T10:58:57.402Z,0.68
2023-07-26T11:03:01.749Z,0.80
2023-07-26T11:06:24.051Z,0.88
2023-07-26T11:09:46.331Z,0.88
2023-07-26T11:13:16.926Z,0.60
2023-07-26T11:16:40.101Z,0.68
2023-07-26T11:20:02.510Z,0.70
2023-07-26T11:23:28.287Z,0.60
2023-07-26T11:26:50.965Z,1.05
2023-07-26T11:30:20.907Z,0.55
2023-07-26T11:33:45.099Z,0.90
2023-07-26T11:37:08.990Z,0.70
2023-07-26T11:40:31.448Z,0.70
2023-07-26T11:43:55.439Z,0.60
2023-07-26T11:47:19.711Z,0.40
2023-07-26T11:50:42.804Z,0.40
2023-07-26T11:54:11.193Z,1.30
2023-07-26T11:57:34.411Z,0.80
2023-07-26T12:00:59.210Z,0.50
2023-07-26T12:04:22.029Z,0.50
2023-07-26T12:07:49.812Z,0.55
2023-07-26T12:11:12.235Z,0.50
2023-07-26T12:14:34.498Z,0.60
2023-07-26T12:17:57.668Z,0.57
2023-07-26T12:21:24.579Z,0.40
2023-07-26T12:24:54.751Z,0.38
2023-07-26T12:28:17.056Z,0.55
2023-07-26T12:31:39.687Z,0.30
2023-07-26T12:35:01.936Z,0.40
2023-07-26T12:38:24.628Z,0.43
2023-07-26T12:41:47.190Z,0.25
2023-07-26T12:45:09.883Z,0.40
2023-07-26T12:48:34.592Z,0.20
2023-07-26T12:51:56.912Z,0.30
2023-07-26T12:55:19.139Z,0.15
2023-07-26T12:58:56.556Z,0.30
2023-07-26T13:02:23.332Z,0.20
2023-07-26T13:05:45.595Z,0.22
2023-07-26T13:09:08.606Z,0.20
2023-07-26T13:12:30.825Z,0.20
2023-07-26T13:15:53.613Z,0.20
2023-07-26T13:19:15.856Z,0.10
2023-07-26T13:22:38.200Z,0.30
2023-07-26T13:26:00.460Z,1.67
2023-07-26T13:29:22.723Z,0.80
2023-07-26T13:32:45.039Z,0.52
2023-07-26T13:36:07.340Z,0.30
2023-07-26T13:39:30.324Z,0.30
2023-07-26T13:42:52.556Z,0.25
2023-07-26T13:49:39.917Z,0.20
2023-07-26T13:53:02.103Z,0.20
2023-07-26T13:56:24.348Z,0.35
2023-07-26T13:59:46.613Z,0.25
2023-07-26T14:03:10.817Z,0.22
2023-07-26T14:06:33.414Z,0.20
2023-07-26T14:09:55.823Z,0.20
2023-07-26T14:13:18.121Z,0.20
2023-07-26T14:16:40.461Z,0.50
2023-07-26T14:20:02.904Z,0.20
2023-07-26T14:23:25.254Z,0.20
2023-07-26T14:26:47.410Z,0.30
2023-07-26T14:30:10.274Z,0.13
2023-07-26T14:33:32.489Z,0.20
2023-07-26T14:36:54.739Z,0.30
2023-07-26T14:40:16.939Z,0.20
2023-07-26T14:43:39.241Z,0.20
2023-07-26T14:47:01.564Z,0.20
2023-07-26T14:50:23.826Z,0.30
2023-07-26T14:53:46.292Z,0.20
2023-07-26T14:57:12.065Z,0.32
2023-07-26T15:00:35.259Z,0.30
2023-07-26T15:04:01.238Z,0.20
2023-07-26T15:07:23.647Z,0.20
2023-07-26T15:10:45.974Z,0.30
2023-07-26T15:14:09.657Z,0.35
2023-07-26T15:17:32.153Z,0.30
2023-07-26T15:20:54.803Z,0.30
2023-07-26T15:24:17.113Z,0.40
2023-07-26T15:27:40.881Z,0.40
2023-07-26T15:31:03.851Z,0.50
2023-07-26T15:34:26.068Z,0.30
2023-07-26T15:37:48.389Z,0.30
2023-07-26T15:44:37.186Z,0.28
2023-07-26T15:48:00.053Z,0.20
2023-07-26T15:51:23.043Z,0.32
2023-07-26T15:54:45.236Z,0.40
2023-07-26T15:58:07.490Z,0.30
2023-07-26T16:01:29.817Z,0.30
2023-07-26T16:08:17.816Z,0.20
2023-07-26T16:18:31.172Z,0.25
2023-07-26T16:21:53.906Z,0.30
2023-07-26T16:25:16.666Z,0.35
2023-07-26T16:28:38.935Z,0.40
2023-07-26T16:32:01.281Z,0.20
2023-07-26T16:35:23.550Z,0.40
2023-07-26T16:38:45.783Z,0.30
2023-07-26T16:42:08.149Z,0.20
2023-07-26T16:45:30.382Z,0.30
2023-07-26T16:48:52.629Z,0.40
2023-07-26T16:52:14.942Z,0.30
2023-07-26T16:55:37.292Z,0.30
2023-07-26T16:58:59.508Z,0.40
2023-07-26T17:02:21.900Z,0.40
2023-07-26T17:05:44.255Z,0.35
2023-07-26T17:09:06.724Z,0.30
2023-07-26T17:12:29.162Z,0.50
2023-07-26T17:15:51.497Z,0.40
2023-07-26T17:19:13.797Z,0.40
2023-07-26T17:22:36.116Z,0.47
2023-07-26T17:25:58.288Z,0.20
2023-07-26T17:29:20.595Z,0.35
2023-07-26T17:32:42.919Z,0.30
2023-07-26T17:36:12.750Z,0.50
2023-07-26T17:39:35.018Z,0.40
2023-07-26T17:42:58.808Z,0.30
2023-07-26T17:46:21.805Z,0.50
2023-07-26T17:49:45.135Z,0.40
2023-07-26T17:53:07.487Z,0.40
2023-07-26T17:56:29.815Z,0.35
2023-07-26T17:59:52.207Z,0.40
2023-07-26T18:03:14.510Z,0.35
2023-07-26T18:06:37.058Z,0.30
2023-07-26T18:09:59.341Z,0.30
2023-07-26T18:13:22.070Z,0.30
2023-07-26T18:16:51.635Z,0.22
2023-07-26T18:20:14.336Z,0.38
2023-07-26T18:23:38.338Z,0.40
2023-07-26T18:27:00.713Z,0.32
2023-07-26T18:30:23.422Z,0.40
2023-07-26T18:33:46.322Z,0.50
2023-07-26T18:37:08.619Z,0.40
2023-07-26T18:40:30.933Z,0.30
2023-07-26T18:43:53.292Z,0.40
2023-07-26T18:47:15.636Z,0.30
2023-07-26T18:50:40.068Z,0.20
2023-07-26T18:54:03.512Z,0.30
2023-07-26T18:57:25.726Z,0.30
2023-07-26T19:00:48.234Z,0.32
2023-07-26T19:04:10.499Z,0.20
2023-07-26T19:07:32.768Z,0.52
2023-07-26T19:10:55.105Z,0.38
2023-07-26T19:14:17.393Z,0.17
2023-07-26T19:17:39.746Z,0.30
2023-07-26T19:21:03.567Z,0.30
2023-07-26T19:24:25.786Z,0.30
2023-07-26T19:27:48.026Z,0.60
2023-07-26T19:31:10.294Z,0.50
2023-07-26T19:34:32.594Z,0.50
2023-07-26T19:37:55.382Z,0.45
2023-07-26T19:41:19.244Z,0.22
2023-07-26T19:44:41.440Z,0.20
2023-07-26T19:48:03.862Z,0.30
2023-07-26T19:51:26.132Z,0.22
2023-07-26T19:54:48.363Z,0.20
2023-07-26T19:58:10.585Z,0.30
2023-07-26T20:01:32.913Z,0.30
2023-07-26T20:04:55.204Z,0.30
2023-07-26T20:08:17.706Z,0.10
2023-07-26T20:11:39.867Z,0.40
2023-07-26T20:15:02.147Z,0.45
2023-07-26T20:18:25.376Z,0.40
2023-07-26T20:21:47.704Z,0.30
2023-07-26T20:25:09.923Z,0.20
2023-07-26T20:28:32.112Z,0.22
2023-07-26T20:31:54.837Z,0.30
2023-07-26T20:35:17.153Z,0.20
2023-07-26T20:38:39.459Z,0.10
2023-07-26T20:42:01.649Z,0.20
2023-07-26T20:45:23.882Z,0.40
2023-07-26T20:48:46.219Z,0.20
2023-07-26T20:52:08.623Z,0.20
2023-07-26T20:55:30.871Z,0.30
2023-07-26T20:58:53.113Z,0.25
2023-07-26T21:02:15.346Z,0.20
2023-07-26T21:05:37.614Z,0.20
2023-07-26T21:08:59.874Z,0.30
2023-07-26T21:12:22.436Z,0.17
2023-07-26T21:15:45.437Z,0.35
2023-07-26T21:19:10.352Z,0.20
2023-07-26T21:25:55.535Z,0.32
2023-07-26T21:29:17.812Z,0.30
2023-07-26T21:32:40.067Z,0.38
2023-07-26T21:36:02.441Z,0.22
2023-07-26T21:39:24.646Z,0.30
2023-07-26T21:42:46.885Z,0.30
2023-07-26T21:46:09.261Z,0.40
2023-07-26T21:49:31.531Z,0.22
2023-07-26T21:52:53.745Z,0.55
2023-07-26T21:56:16.203Z,0.30
2023-07-26T21:59:38.482Z,0.25
2023-07-26T22:03:00.708Z,0.43
2023-07-26T22:06:23.240Z,0.28
2023-07-26T22:09:46.850Z,0.40
2023-07-26T22:13:09.044Z,0.20
2023-07-26T22:16:31.637Z,0.30
2023-07-26T22:19:54.282Z,0.35
2023-07-26T22:23:16.530Z,0.30
2023-07-26T22:26:38.800Z,0.35
2023-07-26T22:30:01.490Z,0.40
2023-07-26T22:33:23.805Z,0.28
2023-07-26T22:36:46.011Z,0.40
2023-07-26T22:40:08.729Z,0.20
2023-07-26T22:43:31.011Z,0.35
2023-07-26T22:46:53.426Z,0.28
2023-07-26T22:50:16.054Z,0.20
2023-07-26T22:53:38.353Z,0.30
2023-07-26T22:57:00.614Z,0.30
2023-07-26T23:00:22.901Z,0.20
2023-07-26T23:03:45.176Z,0.28
2023-07-26T23:07:08.277Z,0.30
2023-07-26T23:10:30.524Z,0.20
2023-07-26T23:13:52.738Z,0.20
2023-07-26T23:17:15.073Z,0.20
2023-07-26T23:20:37.245Z,0.20
2023-07-26T23:23:59.706Z,0.20
2023-07-26T23:27:21.893Z,0.20
2023-07-26T23:30:52.454Z,0.20
2023-07-26T23:34:14.743Z,0.13
2023-07-26T23:37:36.913Z,0.10
2023-07-26T23:41:00.921Z,0.20
2023-07-26T23:44:23.263Z,0.10
2023-07-26T23:47:45.547Z,0.30
2023-07-26T23:51:07.822Z,0.10
2023-07-26T23:54:30.022Z,0.10
2023-07-26T23:57:52.403Z,0.30
